createdAt,value
2022-08-22T00:00:33.894Z,101730.72
2022-08-22T00:02:54.356Z,101757.97
2022-08-22T00:03:01.015Z,101751.13
2022-08-22T00:03:09.681Z,101766.53
2022-08-22T00:06:00.715Z,101726.59
2022-08-22T00:08:57.450Z,101727.59
2022-08-22T00:11:52.844Z,101733.13
2022-08-22T00:14:35.008Z,101724.69
2022-08-22T00:17:20.227Z,101732.06
2022-08-22T00:20:13.390Z,101733.31
2022-08-22T00:22:52.396Z,101732.47
2022-08-22T00:25:54.975Z,101736.81
2022-08-22T00:28:41.867Z,101728.78
2022-08-22T00:31:35.347Z,101726.91
2022-08-22T00:34:11.840Z,101718.28
2022-08-22T00:36:51.444Z,101723.81
2022-08-22T00:39:25.453Z,101724.63
2022-08-22T00:42:31.718Z,101726.66
2022-08-22T00:45:20.176Z,101725.78
2022-08-22T00:48:21.898Z,101722.88
2022-08-22T00:51:11.478Z,101717.31
2022-08-22T00:53:37.951Z,101713.63
2022-08-22T00:56:29.346Z,101722.03
2022-08-22T00:59:23.806Z,101720.75
2022-08-22T01:02:04.947Z,101715.38
2022-08-22T01:04:42.657Z,101719.00
2022-08-22T01:07:24.575Z,101719.81
2022-08-22T01:10:34.031Z,101720.63
2022-08-22T01:13:44.976Z,101717.31
2022-08-22T01:16:14.137Z,101715.25
2022-08-22T01:18:57.677Z,101710.31
2022-08-22T01:21:52.128Z,101715.22
2022-08-22T01:25:13.145Z,101717.69
2022-08-22T01:28:07.436Z,101721.94
2022-08-22T01:30:59.106Z,101723.16
2022-08-22T01:33:43.456Z,101726.00
2022-08-22T01:36:28.694Z,101719.47
2022-08-22T01:39:15.398Z,101728.50
2022-08-22T01:42:00.018Z,101732.56
2022-08-22T01:44:35.449Z,101718.19
2022-08-22T01:47:11.047Z,101720.63
2022-08-22T01:49:44.620Z,101721.84
2022-08-22T01:52:19.673Z,101725.91
2022-08-22T01:54:59.603Z,101723.78
2022-08-22T01:57:27.509Z,101718.66
2022-08-22T02:00:07.653Z,101721.69
2022-08-22T02:02:59.722Z,101719.44
2022-08-22T02:05:37.382Z,101719.78
2022-08-22T02:08:25.220Z,101715.88
2022-08-22T02:11:04.592Z,101715.19
2022-08-22T02:13:51.359Z,101718.88
2022-08-22T02:16:20.679Z,101725.97
2022-08-22T02:19:02.207Z,101722.47
2022-08-22T02:21:41.684Z,101715.44
2022-08-22T02:24:32.975Z,101716.44
2022-08-22T02:27:19.796Z,101717.66
2022-08-22T02:30:18.604Z,101713.78
2022-08-22T02:33:10.263Z,101710.41
2022-08-22T02:35:51.857Z,101717.22
2022-08-22T02:38:29.248Z,101712.28
2022-08-22T02:41:38.148Z,101714.75
2022-08-22T02:44:25.729Z,101714.09
2022-08-22T02:47:12.873Z,101710.78
2022-08-22T02:49:58.563Z,101714.88
2022-08-22T02:52:39.443Z,101709.09
2022-08-22T02:55:50.572Z,101712.09
2022-08-22T02:58:44.791Z,101711.94
2022-08-22T03:01:33.534Z,101713.97
2022-08-22T03:04:32.286Z,101709.28
2022-08-22T03:07:08.013Z,101701.28
2022-08-22T03:09:41.495Z,101699.63
2022-08-22T03:12:41.948Z,101696.50
2022-08-22T03:15:23.413Z,101686.69
2022-08-22T03:18:00.139Z,101680.94
2022-08-22T03:20:42.008Z,101678.44
2022-08-22T03:23:40.720Z,101677.16
2022-08-22T03:26:22.695Z,101672.03
2022-08-22T03:28:59.711Z,101670.41
2022-08-22T03:31:29.181Z,101672.41
2022-08-22T03:34:21.459Z,101677.56
2022-08-22T03:36:58.304Z,101672.34
2022-08-22T03:40:00.226Z,101672.72
2022-08-22T03:42:35.812Z,101670.81
2022-08-22T03:45:28.587Z,101667.88
2022-08-22T03:48:27.520Z,101671.94
2022-08-22T03:51:21.907Z,101672.59
2022-08-22T03:54:09.697Z,101672.19
2022-08-22T03:56:39.108Z,101667.06
2022-08-22T03:59:24.092Z,101672.59
2022-08-22T04:02:27.522Z,101672.66
2022-08-22T04:05:01.426Z,101681.81
2022-08-22T04:08:08.064Z,101675.25
2022-08-22T04:11:15.714Z,101676.34
2022-08-22T04:13:57.351Z,101676.34
2022-08-22T04:16:26.641Z,101672.84
2022-08-22T04:19:22.686Z,101663.63
2022-08-22T04:21:51.953Z,101673.03
2022-08-22T04:24:30.570Z,101675.53
2022-08-22T04:27:03.123Z,101685.72
2022-08-22T04:29:38.924Z,101686.25
2022-08-22T04:32:27.277Z,101679.31
2022-08-22T04:35:08.172Z,101682.16
2022-08-22T04:37:40.508Z,101687.47
2022-08-22T04:40:14.330Z,101681.03
2022-08-22T04:42:55.941Z,101691.13
2022-08-22T04:45:48.992Z,101688.94
2022-08-22T04:48:28.246Z,101692.78
2022-08-22T04:51:03.612Z,101695.47
2022-08-22T04:53:52.172Z,101698.28
2022-08-22T04:56:45.081Z,101696.16
2022-08-22T04:59:16.507Z,101706.44
2022-08-22T05:01:59.260Z,101707.91
2022-08-22T05:04:30.617Z,101716.72
2022-08-22T05:07:16.024Z,101706.09
2022-08-22T05:09:47.637Z,101698.91
2022-08-22T05:12:25.241Z,101704.09
2022-08-22T05:15:05.658Z,101710.66
2022-08-22T05:17:37.841Z,101712.34
2022-08-22T05:20:10.138Z,101714.81
2022-08-22T05:22:42.786Z,101710.56
2022-08-22T05:25:15.044Z,101711.47
2022-08-22T05:28:13.652Z,101712.19
2022-08-22T05:30:41.107Z,101711.44
2022-08-22T05:33:21.631Z,101707.28
2022-08-22T05:35:58.243Z,101706.63
2022-08-22T05:38:31.040Z,101705.72
2022-08-22T05:41:06.048Z,101702.63
2022-08-22T05:43:38.498Z,101699.06
2022-08-22T05:46:09.929Z,101705.31
2022-08-22T05:49:01.129Z,101702.19
2022-08-22T05:51:39.745Z,101701.28
2022-08-22T05:54:14.465Z,101694.59
2022-08-22T05:56:49.265Z,101702.88
2022-08-22T05:59:29.887Z,101692.66
2022-08-22T06:02:15.278Z,101693.75
2022-08-22T06:04:51.819Z,101690.31
2022-08-22T06:07:22.218Z,101703.09
2022-08-22T06:09:48.724Z,101684.22
2022-08-22T06:12:22.786Z,101688.19
2022-08-22T06:15:11.595Z,101684.34
2022-08-22T06:17:45.430Z,101698.09
2022-08-22T06:20:19.623Z,101699.53
2022-08-22T06:22:53.478Z,101701.59
2022-08-22T06:25:34.029Z,101703.84
2022-08-22T06:28:23.809Z,101713.56
2022-08-22T06:30:54.143Z,101706.19
2022-08-22T06:33:29.351Z,101696.13
2022-08-22T06:36:23.643Z,101703.72
2022-08-22T06:38:56.435Z,101704.56
2022-08-22T06:41:26.692Z,101703.72
2022-08-22T06:43:54.316Z,101700.25
2022-08-22T06:46:26.144Z,101702.31
2022-08-22T06:48:56.294Z,101700.88
2022-08-22T06:51:29.345Z,101704.53
2022-08-22T06:54:08.783Z,101697.91
2022-08-22T06:56:40.678Z,101704.28
2022-08-22T06:59:15.647Z,101698.66
2022-08-22T07:01:45.083Z,101699.84
2022-08-22T07:04:12.009Z,101705.94
2022-08-22T07:06:42.647Z,101695.97
2022-08-22T07:09:34.765Z,101694.00
2022-08-22T07:12:04.631Z,101691.03
2022-08-22T07:14:42.192Z,101693.63
2022-08-22T07:17:17.862Z,101684.91
2022-08-22T07:19:57.315Z,101680.31
2022-08-22T07:22:25.615Z,101680.81
2022-08-22T07:25:08.220Z,101685.06
2022-08-22T07:28:03.709Z,101683.72
2022-08-22T07:31:01.675Z,101691.69
2022-08-22T07:33:49.809Z,101694.31
2022-08-22T07:36:31.619Z,101684.72
2022-08-22T07:39:39.662Z,101688.38
2022-08-22T07:42:21.612Z,101693.22
2022-08-22T07:45:13.897Z,101688.75
2022-08-22T07:48:04.724Z,101692.38
2022-08-22T07:50:37.080Z,101694.19
2022-08-22T07:53:27.934Z,101688.81
2022-08-22T07:55:56.528Z,101690.34
2022-08-22T07:58:27.041Z,101688.88
2022-08-22T08:00:54.872Z,101690.84
2022-08-22T08:03:24.754Z,101687.31
2022-08-22T08:05:52.749Z,101688.53
2022-08-22T08:08:45.911Z,101681.84
2022-08-22T08:11:17.020Z,101693.66
2022-08-22T08:13:47.422Z,101684.69
2022-08-22T08:16:21.821Z,101687.31
2022-08-22T08:18:51.636Z,101687.31
2022-08-22T08:21:49.461Z,101682.75
2022-08-22T08:24:22.292Z,101675.56
2022-08-22T08:27:12.804Z,101678.25
2022-08-22T08:29:45.160Z,101669.06
2022-08-22T08:32:13.432Z,101664.75
2022-08-22T08:34:43.369Z,101663.41
2022-08-22T08:37:22.256Z,101667.47
2022-08-22T08:39:51.963Z,101656.84
2022-08-22T08:43:03.179Z,101667.84
2022-08-22T08:48:18.332Z,101665.47
2022-08-22T08:51:41.530Z,101662.34
2022-08-22T08:54:40.872Z,101655.19
2022-08-22T08:57:15.093Z,101660.63
2022-08-22T08:59:44.416Z,101657.56
2022-08-22T09:02:34.845Z,101655.53
2022-08-22T09:05:15.488Z,101657.41
2022-08-22T09:07:56.122Z,101653.06
2022-08-22T09:10:41.234Z,101655.59
2022-08-22T09:13:48.166Z,101660.50
2022-08-22T09:16:24.672Z,101652.75
2022-08-22T09:19:17.347Z,101653.34
2022-08-22T09:22:14.545Z,101658.69
2022-08-22T09:24:52.429Z,101660.25
2022-08-22T09:27:32.513Z,101634.63
2022-08-22T09:30:08.009Z,101645.50
2022-08-22T09:33:03.444Z,101647.66
2022-08-22T09:35:41.934Z,101646.66
2022-08-22T09:38:33.200Z,101650.63
2022-08-22T09:41:03.849Z,101647.75
2022-08-22T09:43:45.012Z,101630.25
2022-08-22T09:46:18.554Z,101640.78
2022-08-22T09:49:13.257Z,101637.25
2022-08-22T09:51:50.540Z,101644.28
2022-08-22T09:54:33.677Z,101638.50
2022-08-22T09:57:02.084Z,101626.47
2022-08-22T09:59:46.946Z,101620.47
2022-08-22T10:02:34.614Z,101621.09
2022-08-22T10:05:07.705Z,101615.59
2022-08-22T10:07:53.071Z,101615.19
2022-08-22T10:10:43.315Z,101618.75
2022-08-22T10:13:36.105Z,101627.31
2022-08-22T10:16:17.062Z,101623.28
2022-08-22T10:19:06.699Z,101629.59
2022-08-22T10:22:08.445Z,101629.78
2022-08-22T10:25:10.633Z,101623.59
2022-08-22T10:27:56.878Z,101621.84
2022-08-22T10:30:49.655Z,101621.75
2022-08-22T10:33:20.284Z,101618.06
2022-08-22T10:36:15.315Z,101621.34
2022-08-22T10:38:54.780Z,101612.81
2022-08-22T10:41:36.209Z,101602.69
2022-08-22T10:44:14.853Z,101607.69
2022-08-22T10:46:51.110Z,101596.66
2022-08-22T10:49:28.268Z,101601.31
2022-08-22T10:52:21.979Z,101604.78
2022-08-22T10:54:51.571Z,101603.97
2022-08-22T10:57:36.830Z,101592.69
2022-08-22T11:00:46.332Z,101590.31
2022-08-22T11:03:32.116Z,101587.34
2022-08-22T11:06:02.860Z,101588.84
2022-08-22T11:08:48.942Z,101592.16
2022-08-22T11:11:25.271Z,101588.16
2022-08-22T11:14:14.540Z,101595.16
2022-08-22T11:17:12.052Z,101579.19
2022-08-22T11:20:16.678Z,101590.63
2022-08-22T11:23:16.835Z,101591.00
2022-08-22T11:26:07.856Z,101591.25
2022-08-22T11:29:11.282Z,101586.84
2022-08-22T11:31:51.595Z,101586.06
2022-08-22T11:34:38.898Z,101588.47
2022-08-22T11:37:14.940Z,101586.53
2022-08-22T11:39:48.996Z,101588.75
2022-08-22T11:42:47.351Z,101584.28
2022-08-22T11:45:21.514Z,101585.63
2022-08-22T11:48:00.636Z,101578.34
2022-08-22T11:50:36.702Z,101588.84
2022-08-22T11:53:37.003Z,101577.81
2022-08-22T11:56:30.145Z,101587.47
2022-08-22T11:59:02.587Z,101580.47
2022-08-22T12:01:46.208Z,101581.91
2022-08-22T12:04:25.109Z,101578.16
2022-08-22T12:06:54.545Z,101577.28
2022-08-22T12:09:51.000Z,101577.66
2022-08-22T12:12:25.859Z,101570.19
2022-08-22T12:15:03.882Z,101562.09
2022-08-22T12:18:01.426Z,101549.97
2022-08-22T12:20:46.038Z,101559.09
2022-08-22T12:23:40.783Z,101554.41
2022-08-22T12:26:29.182Z,101540.03
2022-08-22T12:29:04.728Z,101538.78
2022-08-22T12:32:37.773Z,101544.06
2022-08-22T12:35:40.300Z,101529.09
2022-08-22T12:38:31.301Z,101529.78
2022-08-22T12:41:35.080Z,101539.94
2022-08-22T12:44:17.139Z,101524.66
2022-08-22T12:47:04.457Z,101520.78
2022-08-22T12:49:49.953Z,101525.34
2022-08-22T12:52:44.371Z,101518.84
2022-08-22T12:55:24.839Z,101517.88
2022-08-22T12:58:03.548Z,101515.84
2022-08-22T13:00:38.166Z,101515.00
2022-08-22T13:03:10.942Z,101512.56
2022-08-22T13:05:44.129Z,101510.75
2022-08-22T13:08:19.951Z,101506.63
2022-08-22T13:10:50.903Z,101501.25
2022-08-22T13:13:37.140Z,101505.44
2022-08-22T13:16:09.407Z,101506.81
2022-08-22T13:18:59.016Z,101505.31
2022-08-22T13:21:36.141Z,101497.63
2022-08-22T13:24:38.558Z,101493.03
2022-08-22T13:27:22.209Z,101495.94
2022-08-22T13:29:57.645Z,101494.97
2022-08-22T13:32:33.342Z,101498.50
2022-08-22T13:35:01.264Z,101493.63
2022-08-22T13:37:40.941Z,101483.25
2022-08-22T13:40:13.215Z,101483.69
2022-08-22T13:42:47.798Z,101476.03
2022-08-22T13:45:22.061Z,101483.03
2022-08-22T13:47:56.841Z,101481.25
2022-08-22T13:50:27.706Z,101480.13
2022-08-22T13:53:14.625Z,101482.41
2022-08-22T13:55:59.223Z,101482.34
2022-08-22T13:58:32.385Z,101484.56
2022-08-22T14:01:15.572Z,101479.47
2022-08-22T14:03:48.601Z,101480.47
2022-08-22T14:06:37.710Z,101486.22
2022-08-22T14:09:30.720Z,101481.91
2022-08-22T14:12:33.494Z,101483.66
2022-08-22T14:15:03.679Z,101490.41
2022-08-22T14:17:42.510Z,101477.44
2022-08-22T14:20:14.512Z,101483.03
2022-08-22T14:23:10.526Z,101477.41
2022-08-22T14:25:40.865Z,101469.22
2022-08-22T14:28:27.387Z,101462.69
2022-08-22T14:31:13.663Z,101457.31
2022-08-22T14:33:52.825Z,101456.38
2022-08-22T14:36:26.481Z,101443.78
2022-08-22T14:39:06.608Z,101450.63
2022-08-22T14:41:52.970Z,101436.59
2022-08-22T14:44:32.657Z,101445.59
2022-08-22T14:47:04.863Z,101443.97
2022-08-22T14:50:00.849Z,101428.13
2022-08-22T14:52:29.363Z,101437.97
2022-08-22T14:55:08.404Z,101431.72
2022-08-22T14:57:41.643Z,101422.22
2022-08-22T15:00:13.947Z,101421.59
2022-08-22T15:02:42.144Z,101419.69
2022-08-22T15:05:19.797Z,101414.69
2022-08-22T15:07:59.322Z,101407.75
2022-08-22T15:10:34.163Z,101413.84
2022-08-22T15:13:07.889Z,101409.94
2022-08-22T15:15:53.616Z,101404.44
2022-08-22T15:18:28.487Z,101407.91
2022-08-22T15:21:08.729Z,101410.06
2022-08-22T15:23:45.276Z,101403.63
2022-08-22T15:26:23.126Z,101402.81
2022-08-22T15:29:04.429Z,101398.38
2022-08-22T15:31:31.491Z,101400.63
2022-08-22T15:34:12.045Z,101396.97
2022-08-22T15:37:24.629Z,101396.72
2022-08-22T15:40:12.032Z,101385.56
2022-08-22T15:42:51.485Z,101388.38
2022-08-22T15:45:29.647Z,101382.47
2022-08-22T15:48:01.295Z,101382.25
2022-08-22T15:50:41.803Z,101373.53
2022-08-22T15:53:22.163Z,101367.06
2022-08-22T15:56:22.458Z,101371.28
2022-08-22T15:59:11.247Z,101371.06
2022-08-22T16:01:44.272Z,101374.75
2022-08-22T16:04:16.476Z,101372.41
2022-08-22T16:06:48.847Z,101365.84
2022-08-22T16:09:29.264Z,101363.13
2022-08-22T16:11:57.505Z,101361.16
2022-08-22T16:14:46.229Z,101363.22
2022-08-22T16:17:24.887Z,101364.13
2022-08-22T16:20:19.311Z,101362.19
2022-08-22T16:22:58.721Z,101361.97
2022-08-22T16:25:46.770Z,101360.66
2022-08-22T16:28:56.799Z,101361.19
2022-08-22T16:31:39.429Z,101357.66
2022-08-22T16:34:18.363Z,101356.81
2022-08-22T16:37:23.514Z,101357.38
2022-08-22T16:39:59.028Z,101369.41
2022-08-22T16:42:46.825Z,101363.78
2022-08-22T16:45:32.736Z,101360.88
2022-08-22T16:48:16.018Z,101370.38
2022-08-22T16:50:43.036Z,101372.00
2022-08-22T16:53:29.829Z,101372.00
2022-08-22T16:56:13.620Z,101361.94
2022-08-22T16:58:59.095Z,101358.28
2022-08-22T17:01:54.943Z,101349.50
2022-08-22T17:04:36.533Z,101353.06
2022-08-22T17:07:18.419Z,101349.00
2022-08-22T17:09:50.894Z,101357.44
2022-08-22T17:12:26.349Z,101347.16
2022-08-22T17:15:14.979Z,101359.44
2022-08-22T17:18:27.125Z,101356.25
2022-08-22T17:21:19.550Z,101356.84
2022-08-22T17:23:51.797Z,101361.72
2022-08-22T17:26:49.067Z,101366.31
2022-08-22T17:29:28.954Z,101360.09
2022-08-22T17:32:40.528Z,101356.59
2022-08-22T17:35:13.055Z,101359.03
2022-08-22T17:37:59.895Z,101358.72
2022-08-22T17:41:02.279Z,101366.56
2022-08-22T17:43:55.945Z,101375.44
2022-08-22T17:46:41.394Z,101376.22
2022-08-22T17:49:28.626Z,101371.34
2022-08-22T17:52:05.747Z,101370.75
2022-08-22T17:54:42.095Z,101375.56
2022-08-22T17:57:14.403Z,101385.81
2022-08-22T17:59:53.831Z,101387.94
2022-08-22T18:02:25.900Z,101385.75
2022-08-22T18:05:11.729Z,101385.16
2022-08-22T18:07:57.747Z,101392.38
2022-08-22T18:10:24.343Z,101390.09
2022-08-22T18:13:09.623Z,101391.66
2022-08-22T18:15:49.539Z,101395.69
2022-08-22T18:18:18.803Z,101400.91
2022-08-22T18:20:56.016Z,101388.00
2022-08-22T18:23:39.751Z,101385.47
2022-08-22T18:26:20.688Z,101390.59
2022-08-22T18:29:04.168Z,101391.13
2022-08-22T18:31:47.136Z,101400.31
2022-08-22T18:34:24.864Z,101410.81
2022-08-22T18:37:02.508Z,101401.28
2022-08-22T18:39:42.625Z,101403.34
2022-08-22T18:42:18.376Z,101411.09
2022-08-22T18:44:45.590Z,101428.34
2022-08-22T18:47:19.177Z,101420.41
2022-08-22T18:49:49.099Z,101427.88
2022-08-22T18:52:20.364Z,101437.78
2022-08-22T18:55:35.145Z,101447.22
2022-08-22T18:58:40.018Z,101444.59
2022-08-22T19:01:17.436Z,101449.00
2022-08-22T19:04:24.135Z,101449.88
2022-08-22T19:07:00.103Z,101460.22
2022-08-22T19:09:54.018Z,101464.88
2022-08-22T19:12:20.547Z,101467.81
2022-08-22T19:15:06.053Z,101466.31
2022-08-22T19:18:04.149Z,101466.69
2022-08-22T19:20:55.278Z,101472.78
2022-08-22T19:23:34.388Z,101479.66
2022-08-22T19:26:30.339Z,101491.47
2022-08-22T19:29:25.952Z,101487.63
2022-08-22T19:31:54.621Z,101490.63
2022-08-22T19:34:33.903Z,101481.00
2022-08-22T19:37:30.465Z,101492.59
2022-08-22T19:40:11.151Z,101490.56
2022-08-22T19:42:40.541Z,101493.31
2022-08-22T19:45:07.449Z,101491.00
2022-08-22T19:47:39.158Z,101492.44
2022-08-22T19:50:26.550Z,101492.56
2022-08-22T19:53:00.150Z,101492.72
2022-08-22T19:55:38.876Z,101504.19
2022-08-22T19:58:55.209Z,101504.09
2022-08-22T20:01:56.181Z,101502.38
2022-08-22T20:04:47.459Z,101510.09
2022-08-22T20:07:14.635Z,101504.47
2022-08-22T20:10:08.965Z,101498.63
2022-08-22T20:13:04.241Z,101506.47
2022-08-22T20:15:36.070Z,101501.94
2022-08-22T20:18:12.490Z,101502.50
2022-08-22T20:21:00.036Z,101514.78
2022-08-22T20:23:30.871Z,101502.84
2022-08-22T20:25:58.570Z,101504.72
2022-08-22T20:28:49.025Z,101506.13
2022-08-22T20:31:23.265Z,101501.22
2022-08-22T20:33:55.659Z,101500.88
2022-08-22T20:36:27.826Z,101501.09
2022-08-22T20:39:01.698Z,101497.22
2022-08-22T20:41:37.424Z,101505.53
2022-08-22T20:44:16.115Z,101498.97
2022-08-22T20:46:53.516Z,101500.63
2022-08-22T20:49:30.037Z,101502.97
2022-08-22T20:52:02.491Z,101504.47
2022-08-22T20:54:32.580Z,101501.09
2022-08-22T20:57:01.405Z,101499.06
2022-08-22T20:59:41.470Z,101491.78
2022-08-22T21:02:29.835Z,101505.91
2022-08-22T21:05:03.639Z,101502.88
2022-08-22T21:07:39.798Z,101497.38
2022-08-22T21:10:36.186Z,101506.47
2022-08-22T21:13:04.701Z,101499.09
2022-08-22T21:15:43.395Z,101499.44
2022-08-22T21:18:23.745Z,101500.00
2022-08-22T21:20:50.953Z,101499.47
2022-08-22T21:23:18.035Z,101508.22
2022-08-22T21:26:08.670Z,101499.91
2022-08-22T21:28:57.738Z,101499.84
2022-08-22T21:31:28.885Z,101496.03
2022-08-22T21:33:56.997Z,101505.78
2022-08-22T21:36:28.281Z,101499.44
2022-08-22T21:39:03.651Z,101513.06
2022-08-22T21:41:52.426Z,101509.81
2022-08-22T21:44:27.712Z,101504.00
2022-08-22T21:46:55.320Z,101493.28
2022-08-22T21:49:24.984Z,101498.41
2022-08-22T21:51:52.964Z,101498.72
2022-08-22T21:54:29.791Z,101497.81
2022-08-22T21:57:18.003Z,101500.63
2022-08-22T21:59:59.355Z,101491.34
2022-08-22T22:02:36.453Z,101489.34
2022-08-22T22:05:11.538Z,101491.25
2022-08-22T22:07:41.255Z,101498.75
2022-08-22T22:10:11.607Z,101505.53
2022-08-22T22:12:40.879Z,101489.88
2022-08-22T22:15:08.494Z,101492.78
2022-08-22T22:17:35.087Z,101488.69
2022-08-22T22:20:02.181Z,101491.63
2022-08-22T22:22:28.831Z,101480.88
2022-08-22T22:24:55.363Z,101483.78
2022-08-22T22:27:21.897Z,101480.28
2022-08-22T22:29:48.724Z,101480.50
2022-08-22T22:32:15.356Z,101490.03
2022-08-22T22:34:41.935Z,101486.75
2022-08-22T22:37:10.029Z,101493.78
2022-08-22T22:39:37.135Z,101497.72
2022-08-22T22:42:04.387Z,101493.78
2022-08-22T22:44:31.136Z,101495.28
2022-08-22T22:46:58.912Z,101491.56
2022-08-22T22:49:25.532Z,101490.97
2022-08-22T22:51:52.208Z,101476.34
2022-08-22T22:54:18.842Z,101482.00
2022-08-22T22:56:54.093Z,101487.06
2022-08-22T22:59:24.714Z,101479.09
2022-08-22T23:02:05.957Z,101477.34
2022-08-22T23:04:34.362Z,101479.03
2022-08-22T23:07:01.433Z,101474.59
2022-08-22T23:09:38.787Z,101479.34
2022-08-22T23:12:13.217Z,101473.81
2022-08-22T23:14:39.902Z,101483.34
2022-08-22T23:17:07.218Z,101490.38
2022-08-22T23:19:34.045Z,101493.84
2022-08-22T23:22:01.285Z,101493.47
2022-08-22T23:24:29.701Z,101491.91
2022-08-22T23:26:57.101Z,101492.81
2022-08-22T23:29:24.182Z,101489.75
2022-08-22T23:31:56.437Z,101486.31
2022-08-22T23:34:29.204Z,101485.47
2022-08-22T23:37:01.216Z,101489.22
2022-08-22T23:39:29.714Z,101491.88
2022-08-22T23:41:57.744Z,101488.97
2022-08-22T23:44:27.400Z,101492.09
2022-08-22T23:46:55.820Z,101487.34
2022-08-22T23:49:22.455Z,101503.44
2022-08-22T23:51:49.950Z,101500.94
2022-08-22T23:54:17.185Z,101510.63
2022-08-22T23:56:47.596Z,101503.44
2022-08-22T23:59:18.769Z,101504.22
